createdAt,value
2018-09-12T00:00:22.571Z,18.30
2018-09-12T00:02:50.940Z,18.30
2018-09-12T00:05:19.361Z,18.30
2018-09-12T00:07:47.741Z,18.20
2018-09-12T00:10:16.236Z,18.10
2018-09-12T00:12:44.659Z,18.10
2018-09-12T00:15:13.304Z,18.00
2018-09-12T00:17:41.786Z,18.00
2018-09-12T00:20:10.215Z,17.90
2018-09-12T00:22:38.655Z,17.80
2018-09-12T00:25:07.122Z,17.90
2018-09-12T00:27:35.665Z,17.90
2018-09-12T00:30:04.136Z,17.90
2018-09-12T00:32:32.554Z,17.90
2018-09-12T00:35:00.926Z,17.90
2018-09-12T00:37:29.376Z,17.90
2018-09-12T00:39:57.811Z,17.80
2018-09-12T00:42:26.230Z,17.80
2018-09-12T00:44:54.563Z,17.80
2018-09-12T00:47:22.991Z,17.80
2018-09-12T00:49:51.435Z,17.80
2018-09-12T00:52:19.791Z,17.70
2018-09-12T00:54:48.210Z,17.60
2018-09-12T00:57:16.570Z,17.70
2018-09-12T00:59:44.940Z,17.70
2018-09-12T01:02:13.357Z,17.60
2018-09-12T01:04:41.728Z,17.60
2018-09-12T01:07:10.137Z,17.60
2018-09-12T01:09:38.564Z,17.70
2018-09-12T01:12:06.889Z,17.60
2018-09-12T01:14:35.259Z,17.70
2018-09-12T01:17:03.665Z,17.60
2018-09-12T01:19:32.100Z,17.60
2018-09-12T01:22:00.411Z,17.60
2018-09-12T01:24:28.692Z,17.60
2018-09-12T01:26:56.960Z,17.60
2018-09-12T01:29:26.363Z,17.40
2018-09-12T01:31:54.877Z,17.20
2018-09-12T01:34:23.227Z,17.10
2018-09-12T01:36:51.483Z,17.10
2018-09-12T01:39:19.728Z,17.10
2018-09-12T01:41:47.981Z,17.10
2018-09-12T01:44:16.259Z,17.00
2018-09-12T01:46:44.480Z,17.10
2018-09-12T01:49:16.713Z,17.10
2018-09-12T01:51:45.402Z,17.00
2018-09-12T01:54:13.841Z,17.10
2018-09-12T01:56:42.089Z,17.00
2018-09-12T01:59:10.516Z,16.90
2018-09-12T02:01:38.759Z,16.90
2018-09-12T02:04:07.029Z,17.00
2018-09-12T02:06:35.268Z,17.00
2018-09-12T02:09:03.686Z,16.90
2018-09-12T02:11:31.945Z,16.90
2018-09-12T02:14:00.160Z,16.90
2018-09-12T02:16:28.447Z,16.90
2018-09-12T02:18:56.697Z,16.90
2018-09-12T02:21:24.943Z,16.90
2018-09-12T02:23:53.204Z,16.90
2018-09-12T02:26:21.490Z,16.90
2018-09-12T02:28:49.797Z,16.90
2018-09-12T02:31:18.071Z,16.90
2018-09-12T02:33:46.382Z,16.80
2018-09-12T02:36:19.957Z,16.80
2018-09-12T02:38:48.390Z,16.70
2018-09-12T02:41:16.687Z,16.70
2018-09-12T02:43:44.932Z,16.70
2018-09-12T02:46:13.167Z,16.60
2018-09-12T02:48:41.418Z,16.60
2018-09-12T02:51:09.655Z,16.60
2018-09-12T02:53:37.943Z,16.50
2018-09-12T02:56:06.224Z,16.60
2018-09-12T02:58:34.529Z,16.50
2018-09-12T03:01:02.767Z,16.50
2018-09-12T03:03:31.019Z,16.50
2018-09-12T03:05:59.268Z,16.50
2018-09-12T03:08:27.521Z,16.60
2018-09-12T03:10:55.784Z,16.60
2018-09-12T03:13:29.107Z,16.50
2018-09-12T03:16:00.313Z,16.40
2018-09-12T03:18:30.275Z,16.40
2018-09-12T03:21:00.168Z,16.50
2018-09-12T03:23:28.344Z,16.50
2018-09-12T03:25:56.579Z,16.40
2018-09-12T03:28:24.873Z,16.30
2018-09-12T03:30:53.184Z,16.30
2018-09-12T03:33:34.191Z,16.30
2018-09-12T03:36:02.453Z,16.20
2018-09-12T03:38:30.704Z,16.30
2018-09-12T03:40:58.955Z,16.20
2018-09-12T03:43:27.201Z,16.20
2018-09-12T03:45:55.463Z,16.20
2018-09-12T03:48:23.686Z,16.20
2018-09-12T03:50:51.927Z,16.20
2018-09-12T03:53:20.182Z,16.10
2018-09-12T03:55:48.456Z,16.20
2018-09-12T03:58:16.771Z,16.20
2018-09-12T04:00:45.035Z,16.20
2018-09-12T04:03:13.303Z,16.10
2018-09-12T04:05:41.740Z,16.10
2018-09-12T04:08:09.952Z,16.10
2018-09-12T04:10:38.235Z,16.10
2018-09-12T04:13:06.438Z,16.10
2018-09-12T04:15:34.683Z,16.10
2018-09-12T04:18:02.958Z,16.10
2018-09-12T04:20:31.255Z,16.20
2018-09-12T04:22:59.476Z,16.10
2018-09-12T04:25:27.716Z,16.20
2018-09-12T04:27:55.980Z,16.10
2018-09-12T04:30:24.232Z,16.10
2018-09-12T04:32:52.464Z,16.00
2018-09-12T04:35:20.717Z,16.10
2018-09-12T04:37:48.974Z,16.00
2018-09-12T04:40:17.178Z,16.00
2018-09-12T04:42:45.472Z,16.00
2018-09-12T04:45:13.811Z,15.90
2018-09-12T04:47:42.202Z,16.00
2018-09-12T04:50:10.428Z,16.00
2018-09-12T04:52:38.721Z,15.80
2018-09-12T04:55:07.715Z,15.80
2018-09-12T04:57:35.990Z,15.80
2018-09-12T05:00:04.279Z,15.90
2018-09-12T05:02:32.564Z,15.80
2018-09-12T05:05:00.812Z,15.90
2018-09-12T05:07:29.074Z,15.90
2018-09-12T05:09:57.304Z,16.00
2018-09-12T05:12:25.543Z,16.00
2018-09-12T05:14:53.882Z,16.00
2018-09-12T05:17:22.120Z,16.00
2018-09-12T05:19:50.436Z,15.90
2018-09-12T05:22:18.692Z,16.00
2018-09-12T05:24:46.963Z,16.10
2018-09-12T05:27:15.267Z,16.10
2018-09-12T05:29:43.575Z,16.10
2018-09-12T05:32:11.833Z,16.10
2018-09-12T05:34:40.146Z,16.20
2018-09-12T05:37:08.389Z,16.30
2018-09-12T05:39:36.737Z,16.30
2018-09-12T05:42:04.986Z,16.30
2018-09-12T05:44:33.314Z,16.30
2018-09-12T05:47:01.591Z,16.30
2018-09-12T05:49:29.910Z,16.30
2018-09-12T05:51:58.158Z,16.30
2018-09-12T05:54:26.439Z,16.40
2018-09-12T05:56:54.701Z,16.40
2018-09-12T05:59:23.026Z,16.50
2018-09-12T06:01:51.292Z,16.50
2018-09-12T06:04:19.606Z,16.60
2018-09-12T06:06:47.954Z,16.70
2018-09-12T06:09:16.148Z,16.90
2018-09-12T06:11:44.411Z,17.10
2018-09-12T06:14:12.720Z,17.10
2018-09-12T06:16:40.930Z,17.20
2018-09-12T06:19:09.183Z,17.30
2018-09-12T06:21:37.450Z,17.30
2018-09-12T06:24:06.253Z,17.20
2018-09-12T06:26:34.497Z,17.30
2018-09-12T06:29:02.849Z,17.40
2018-09-12T06:31:31.140Z,17.50
2018-09-12T06:33:59.426Z,17.60
2018-09-12T06:36:27.720Z,17.70
2018-09-12T06:38:55.978Z,17.90
2018-09-12T06:41:24.291Z,17.90
2018-09-12T06:43:52.577Z,18.20
2018-09-12T06:46:20.828Z,18.20
2018-09-12T06:48:49.113Z,18.10
2018-09-12T06:51:17.414Z,18.20
2018-09-12T06:53:45.760Z,18.40
2018-09-12T06:56:14.295Z,18.50
2018-09-12T06:58:42.558Z,18.60
2018-09-12T07:01:11.149Z,18.70
2018-09-12T07:03:39.570Z,18.70
2018-09-12T07:06:07.830Z,18.80
2018-09-12T07:08:36.155Z,18.90
2018-09-12T07:11:04.473Z,19.00
2018-09-12T07:13:32.790Z,19.20
2018-09-12T07:16:01.067Z,19.50
2018-09-12T07:18:29.322Z,19.40
2018-09-12T07:20:57.583Z,19.60
2018-09-12T07:23:26.045Z,19.60
2018-09-12T07:25:54.369Z,19.80
2018-09-12T07:28:22.832Z,19.80
2018-09-12T07:30:51.677Z,20.00
2018-09-12T07:33:20.335Z,20.20
2018-09-12T07:35:52.594Z,20.40
2018-09-12T07:38:21.101Z,20.50
2018-09-12T07:40:49.573Z,20.40
2018-09-12T07:43:17.978Z,20.50
2018-09-12T07:45:46.385Z,20.50
2018-09-12T07:48:14.802Z,20.80
2018-09-12T07:50:47.616Z,20.80
2018-09-12T07:53:16.579Z,21.00
2018-09-12T07:55:44.937Z,21.00
2018-09-12T07:58:13.475Z,21.00
2018-09-12T08:00:41.964Z,21.20
2018-09-12T08:03:10.348Z,21.40
2018-09-12T08:05:38.702Z,21.70
2018-09-12T08:08:07.204Z,21.60
2018-09-12T08:10:35.671Z,21.60
2018-09-12T08:13:04.008Z,21.80
2018-09-12T08:15:32.432Z,22.00
2018-09-12T08:18:00.896Z,22.00
2018-09-12T08:20:29.274Z,22.40
2018-09-12T08:22:57.675Z,22.70
2018-09-12T08:25:25.971Z,22.60
2018-09-12T08:27:54.312Z,22.80
2018-09-12T08:30:23.017Z,22.80
2018-09-12T08:32:51.323Z,23.00
2018-09-12T08:35:19.647Z,22.80
2018-09-12T08:37:48.021Z,22.70
2018-09-12T08:40:16.330Z,22.80
2018-09-12T08:42:45.408Z,22.80
2018-09-12T08:45:13.716Z,22.90
2018-09-12T08:47:42.037Z,23.30
2018-09-12T08:50:10.343Z,23.10
2018-09-12T08:52:38.999Z,23.20
2018-09-12T08:55:07.459Z,22.90
2018-09-12T08:57:35.808Z,22.80
2018-09-12T09:00:04.176Z,22.70
2018-09-12T09:02:32.791Z,23.10
2018-09-12T09:05:01.121Z,23.20
2018-09-12T09:07:29.430Z,22.90
2018-09-12T09:09:57.840Z,23.20
2018-09-12T09:12:26.154Z,23.40
2018-09-12T09:14:54.461Z,23.50
2018-09-12T09:17:22.795Z,23.90
2018-09-12T09:19:51.024Z,24.00
2018-09-12T09:22:19.290Z,23.90
2018-09-12T09:24:47.643Z,24.10
2018-09-12T09:27:16.126Z,24.00
2018-09-12T09:29:44.472Z,23.80
2018-09-12T09:32:13.063Z,23.80
2018-09-12T09:34:41.605Z,23.70
2018-09-12T09:37:09.836Z,24.10
2018-09-12T09:39:38.074Z,24.10
2018-09-12T09:42:06.471Z,24.60
2018-09-12T09:44:34.705Z,24.30
2018-09-12T09:47:02.973Z,24.30
2018-09-12T09:49:31.299Z,24.50
2018-09-12T09:51:59.579Z,24.70
2018-09-12T09:54:27.903Z,25.20
2018-09-12T09:56:56.187Z,25.10
2018-09-12T09:59:24.474Z,25.30
2018-09-12T10:01:58.110Z,25.10
2018-09-12T10:04:31.820Z,25.10
2018-09-12T10:07:04.317Z,25.30
2018-09-12T10:09:33.505Z,25.40
2018-09-12T10:12:02.896Z,25.40
2018-09-12T10:14:31.251Z,25.30
2018-09-12T10:16:59.518Z,25.60
2018-09-12T10:19:27.772Z,25.40
2018-09-12T10:21:56.059Z,25.80
2018-09-12T10:24:24.435Z,25.30
2018-09-12T10:26:52.663Z,25.20
2018-09-12T10:29:20.960Z,25.60
2018-09-12T10:31:49.316Z,25.50
2018-09-12T10:34:17.598Z,25.20
2018-09-12T10:36:46.017Z,24.90
2018-09-12T10:39:14.601Z,25.50
2018-09-12T10:41:43.948Z,26.10
2018-09-12T10:44:12.289Z,26.90
2018-09-12T10:46:40.927Z,26.30
2018-09-12T10:49:09.352Z,26.10
2018-09-12T10:51:37.667Z,26.50
2018-09-12T10:54:06.083Z,26.70
2018-09-12T10:56:34.407Z,26.80
2018-09-12T10:59:02.713Z,27.10
2018-09-12T11:01:30.999Z,26.70
2018-09-12T11:03:59.352Z,26.40
2018-09-12T11:06:27.705Z,26.40
2018-09-12T11:08:55.995Z,26.50
2018-09-12T11:11:24.267Z,25.90
2018-09-12T11:13:52.754Z,26.00
2018-09-12T11:16:21.200Z,26.40
2018-09-12T11:18:49.660Z,26.50
2018-09-12T11:21:18.263Z,26.10
2018-09-12T11:23:46.607Z,26.30
2018-09-12T11:26:14.948Z,26.60
2018-09-12T11:28:43.283Z,26.90
2018-09-12T11:31:11.611Z,26.80
2018-09-12T11:33:41.031Z,26.80
2018-09-12T11:36:10.008Z,27.10
2018-09-12T11:38:38.726Z,27.20
2018-09-12T11:41:07.106Z,27.10
2018-09-12T11:43:35.469Z,27.10
2018-09-12T11:46:03.730Z,26.90
2018-09-12T11:48:32.077Z,27.00
2018-09-12T11:51:00.372Z,27.20
2018-09-12T11:53:28.642Z,27.40
2018-09-12T11:55:56.896Z,27.30
2018-09-12T11:58:25.228Z,27.40
2018-09-12T12:00:53.648Z,27.10
2018-09-12T12:03:21.943Z,26.90
2018-09-12T12:05:50.327Z,27.30
2018-09-12T12:08:18.668Z,27.60
2018-09-12T12:10:46.944Z,27.70
2018-09-12T12:13:15.204Z,27.70
2018-09-12T12:15:43.481Z,27.60
2018-09-12T12:18:11.754Z,27.90
2018-09-12T12:20:40.070Z,27.70
2018-09-12T12:23:08.674Z,27.90
2018-09-12T12:25:36.914Z,28.50
2018-09-12T12:28:05.421Z,29.10
2018-09-12T12:30:33.711Z,28.00
2018-09-12T12:33:02.003Z,27.80
2018-09-12T12:35:31.645Z,27.70
2018-09-12T12:38:00.319Z,28.10
2018-09-12T12:40:28.768Z,28.40
2018-09-12T12:42:57.097Z,28.20
2018-09-12T12:45:25.407Z,27.70
2018-09-12T12:47:53.753Z,28.30
2018-09-12T12:50:22.022Z,28.10
2018-09-12T12:52:50.304Z,27.70
2018-09-12T12:55:18.663Z,28.10
2018-09-12T12:57:46.976Z,28.30
2018-09-12T13:00:15.239Z,28.00
2018-09-12T13:02:43.623Z,28.20
2018-09-12T13:05:11.924Z,27.70
2018-09-12T13:07:40.601Z,27.60
2018-09-12T13:10:08.948Z,28.30
2018-09-12T13:12:37.329Z,28.30
2018-09-12T13:15:19.169Z,28.30
2018-09-12T13:17:47.706Z,28.70
2018-09-12T13:20:16.007Z,29.00
2018-09-12T13:22:46.021Z,28.60
2018-09-12T13:25:14.728Z,28.80
2018-09-12T13:27:45.868Z,28.90
2018-09-12T13:30:15.654Z,28.70
2018-09-12T13:32:45.080Z,28.70
2018-09-12T13:35:13.795Z,28.60
2018-09-12T13:37:43.001Z,28.40
2018-09-12T13:40:12.020Z,28.50
2018-09-12T13:42:41.079Z,27.90
2018-09-12T13:45:09.704Z,27.80
2018-09-12T13:47:39.613Z,27.80
2018-09-12T13:50:09.248Z,27.70
2018-09-12T13:52:38.019Z,27.50
2018-09-12T13:55:07.067Z,27.30
2018-09-12T13:57:35.561Z,27.30
2018-09-12T14:00:05.537Z,27.20
2018-09-12T14:02:34.146Z,27.40
2018-09-12T14:05:02.500Z,27.80
2018-09-12T14:07:31.695Z,27.90
2018-09-12T14:10:00.169Z,27.70
2018-09-12T14:12:29.176Z,27.50
2018-09-12T14:14:57.737Z,27.90
2018-09-12T14:17:26.203Z,27.70
2018-09-12T14:19:54.874Z,27.10
2018-09-12T14:22:23.498Z,27.00
2018-09-12T14:24:51.971Z,27.10
2018-09-12T14:27:20.455Z,27.20
2018-09-12T14:29:48.820Z,26.70
2018-09-12T14:32:17.386Z,26.70
2018-09-12T14:34:45.863Z,27.20
2018-09-12T14:37:14.202Z,26.40
2018-09-12T14:39:42.515Z,26.30
2018-09-12T14:42:10.809Z,26.50
2018-09-12T14:44:39.124Z,26.20
2018-09-12T14:47:07.433Z,25.90
2018-09-12T14:49:35.731Z,26.30
2018-09-12T14:52:04.086Z,26.40
2018-09-12T14:54:33.317Z,26.10
2018-09-12T14:57:01.563Z,25.60
2018-09-12T14:59:29.948Z,24.90
2018-09-12T15:01:58.246Z,24.60
2018-09-12T15:04:26.575Z,24.60
2018-09-12T15:06:55.167Z,24.30
2018-09-12T15:09:23.422Z,24.50
2018-09-12T15:11:51.704Z,24.50
2018-09-12T15:14:19.995Z,24.40
2018-09-12T15:16:48.693Z,24.50
2018-09-12T15:19:17.024Z,24.60
2018-09-12T15:21:45.742Z,24.40
2018-09-12T15:24:14.107Z,24.30
2018-09-12T15:26:42.489Z,24.30
2018-09-12T15:29:10.751Z,24.00
2018-09-12T15:31:39.128Z,24.40
2018-09-12T15:34:07.374Z,23.90
2018-09-12T15:36:35.789Z,23.90
2018-09-12T15:39:06.133Z,24.10
2018-09-12T15:41:34.403Z,24.10
2018-09-12T15:44:02.712Z,24.60
2018-09-12T15:46:31.476Z,24.70
2018-09-12T15:49:00.400Z,25.60
2018-09-12T15:51:28.941Z,25.00
2018-09-12T15:53:57.942Z,24.60
2018-09-12T15:56:26.507Z,24.00
2018-09-12T15:58:55.408Z,23.90
2018-09-12T16:01:24.286Z,23.80
2018-09-12T16:03:52.675Z,23.40
2018-09-12T16:06:21.529Z,22.80
2018-09-12T16:08:50.174Z,23.10
2018-09-12T16:11:18.947Z,23.40
2018-09-12T16:13:47.926Z,23.70
2018-09-12T16:16:16.232Z,23.70
2018-09-12T16:18:44.589Z,22.80
2018-09-12T16:21:12.846Z,23.00
2018-09-12T16:23:41.143Z,23.60
2018-09-12T16:26:09.398Z,23.40
2018-09-12T16:28:37.785Z,23.10
2018-09-12T16:31:06.185Z,23.10
2018-09-12T16:33:34.462Z,23.10
2018-09-12T16:36:02.698Z,22.90
2018-09-12T16:38:30.982Z,22.70
2018-09-12T16:40:59.364Z,22.70
2018-09-12T16:43:27.672Z,22.70
2018-09-12T16:45:55.971Z,23.00
2018-09-12T16:48:24.283Z,23.10
2018-09-12T16:50:52.688Z,22.70
2018-09-12T16:53:21.040Z,22.50
2018-09-12T16:55:49.428Z,22.50
2018-09-12T16:58:17.760Z,22.10
2018-09-12T17:00:46.154Z,22.10
2018-09-12T17:03:14.424Z,21.70
2018-09-12T17:05:43.206Z,21.40
2018-09-12T17:08:11.539Z,21.40
2018-09-12T17:10:39.962Z,21.20
2018-09-12T17:13:08.242Z,21.30
2018-09-12T17:15:36.883Z,21.30
2018-09-12T17:18:05.255Z,21.60
2018-09-12T17:20:33.660Z,21.70
2018-09-12T17:23:02.105Z,21.40
2018-09-12T17:25:30.381Z,21.30
2018-09-12T17:27:59.150Z,21.50
2018-09-12T17:30:27.501Z,21.50
2018-09-12T17:32:55.817Z,21.20
2018-09-12T17:35:24.112Z,21.30
2018-09-12T17:37:52.380Z,21.20
2018-09-12T17:40:20.682Z,21.00
2018-09-12T17:42:49.023Z,20.80
2018-09-12T17:45:17.860Z,20.80
2018-09-12T17:47:46.240Z,20.90
2018-09-12T17:50:14.521Z,20.60
2018-09-12T17:52:42.802Z,20.70
2018-09-12T17:55:11.211Z,20.70
2018-09-12T17:57:39.567Z,20.50
2018-09-12T18:00:07.933Z,20.30
2018-09-12T18:02:36.208Z,20.10
2018-09-12T18:05:04.555Z,20.00
2018-09-12T18:07:32.807Z,20.10
2018-09-12T18:10:01.054Z,20.20
2018-09-12T18:12:29.349Z,20.10
2018-09-12T18:14:57.638Z,20.20
2018-09-12T18:17:25.992Z,19.70
2018-09-12T18:19:54.250Z,19.70
2018-09-12T18:22:22.727Z,19.50
2018-09-12T18:24:51.159Z,19.50
2018-09-12T18:27:21.501Z,19.30
2018-09-12T18:29:50.324Z,19.20
2018-09-12T18:32:18.560Z,19.60
2018-09-12T18:34:47.112Z,19.90
2018-09-12T18:37:16.169Z,20.00
2018-09-12T18:39:44.617Z,19.80
2018-09-12T18:42:13.356Z,19.60
2018-09-12T18:44:41.972Z,19.40
2018-09-12T18:47:10.512Z,19.20
2018-09-12T18:49:38.843Z,19.60
2018-09-12T18:52:07.290Z,19.70
2018-09-12T18:54:37.659Z,19.50
2018-09-12T18:57:06.500Z,19.50
2018-09-12T18:59:35.185Z,19.80
2018-09-12T19:02:03.499Z,19.70
2018-09-12T19:04:33.861Z,19.50
2018-09-12T19:07:02.475Z,19.50
2018-09-12T19:09:30.572Z,19.60
2018-09-12T19:11:59.093Z,19.40
2018-09-12T19:14:27.439Z,19.60
2018-09-12T19:16:55.902Z,19.60
2018-09-12T19:19:24.327Z,19.40
2018-09-12T19:21:52.586Z,19.40
2018-09-12T19:24:22.202Z,19.40
2018-09-12T19:26:51.553Z,19.20
2018-09-12T19:29:19.859Z,19.00
2018-09-12T19:31:48.176Z,19.30
2018-09-12T19:34:16.489Z,19.50
2018-09-12T19:36:45.161Z,19.50
2018-09-12T19:39:13.776Z,19.40
2018-09-12T19:41:42.558Z,19.40
2018-09-12T19:44:10.800Z,19.10
2018-09-12T19:46:40.079Z,19.10
2018-09-12T19:49:08.467Z,19.30
2018-09-12T19:51:36.763Z,19.50
2018-09-12T19:54:05.146Z,19.30
2018-09-12T19:56:33.469Z,19.50
2018-09-12T19:59:01.775Z,19.40
2018-09-12T20:01:30.035Z,19.50
2018-09-12T20:03:58.317Z,19.90
2018-09-12T20:06:26.590Z,19.80
2018-09-12T20:08:54.874Z,19.20
2018-09-12T20:11:23.135Z,18.80
2018-09-12T20:13:51.403Z,18.70
2018-09-12T20:16:19.739Z,18.70
2018-09-12T20:18:48.283Z,19.10
2018-09-12T20:21:16.586Z,19.30
2018-09-12T20:23:45.004Z,19.10
2018-09-12T20:26:13.165Z,19.40
2018-09-12T20:28:46.942Z,19.30
2018-09-12T20:31:15.195Z,19.20
2018-09-12T20:33:43.657Z,19.20
2018-09-12T20:36:11.973Z,19.10
2018-09-12T20:38:40.303Z,19.30
2018-09-12T20:41:08.591Z,19.30
2018-09-12T20:43:36.876Z,19.30
2018-09-12T20:46:05.280Z,19.30
2018-09-12T20:48:43.432Z,18.90
2018-09-12T20:51:13.685Z,18.90
2018-09-12T20:53:43.614Z,18.60
2018-09-12T20:56:14.203Z,18.70
2018-09-12T20:58:42.544Z,19.20
2018-09-12T21:01:12.615Z,19.40
2018-09-12T21:03:41.638Z,19.20
2018-09-12T21:06:10.332Z,19.30
2018-09-12T21:08:40.874Z,19.40
2018-09-12T21:11:12.221Z,19.20
2018-09-12T21:13:40.600Z,19.40
2018-09-12T21:16:13.068Z,19.10
2018-09-12T21:18:43.189Z,19.10
2018-09-12T21:21:11.563Z,19.20
2018-09-12T21:23:41.393Z,19.50
2018-09-12T21:26:11.976Z,19.70
2018-09-12T21:28:44.455Z,19.70
2018-09-12T21:31:19.781Z,19.50
2018-09-12T21:33:51.342Z,19.30
2018-09-12T21:36:20.830Z,19.20
2018-09-12T21:38:59.890Z,19.20
2018-09-12T21:41:30.236Z,19.20
2018-09-12T21:44:03.797Z,19.00
2018-09-12T21:46:32.253Z,19.10
2018-09-12T21:49:00.621Z,19.20
2018-09-12T21:51:28.886Z,19.00
2018-09-12T21:53:57.171Z,19.00
2018-09-12T21:56:25.448Z,19.00
2018-09-12T21:58:53.752Z,19.00
2018-09-12T22:01:24.988Z,18.80
2018-09-12T22:03:53.844Z,18.90
2018-09-12T22:06:22.740Z,19.00
2018-09-12T22:08:51.024Z,19.10
2018-09-12T22:11:19.307Z,19.10
2018-09-12T22:13:47.572Z,19.00
2018-09-12T22:16:15.851Z,19.00
2018-09-12T22:18:44.098Z,18.80
2018-09-12T22:21:12.352Z,18.80
2018-09-12T22:23:40.614Z,18.70
2018-09-12T22:26:08.991Z,18.70
2018-09-12T22:28:37.283Z,18.70
2018-09-12T22:31:05.649Z,18.70
2018-09-12T22:33:33.935Z,18.70
2018-09-12T22:36:02.167Z,18.70
2018-09-12T22:38:30.423Z,18.60
2018-09-12T22:40:58.690Z,18.80
2018-09-12T22:43:26.967Z,18.70
2018-09-12T22:45:55.243Z,18.80
2018-09-12T22:48:23.518Z,18.90
2018-09-12T22:50:51.846Z,18.90
2018-09-12T22:53:20.167Z,18.70
2018-09-12T22:55:48.479Z,18.80
2018-09-12T22:58:16.767Z,18.70
2018-09-12T23:00:45.044Z,18.50
2018-09-12T23:03:13.317Z,18.40
2018-09-12T23:05:41.579Z,18.70
2018-09-12T23:08:09.855Z,18.70
2018-09-12T23:10:38.147Z,18.50
2018-09-12T23:13:06.444Z,18.20
2018-09-12T23:15:34.733Z,18.10
2018-09-12T23:18:03.022Z,18.00
2018-09-12T23:23:05.767Z,18.10
2018-09-12T23:25:34.003Z,17.90
2018-09-12T23:28:02.295Z,18.10
2018-09-12T23:30:30.597Z,17.70
2018-09-12T23:32:58.844Z,17.90
2018-09-12T23:35:27.120Z,18.20
2018-09-12T23:37:55.455Z,18.20
2018-09-12T23:40:23.730Z,18.30
2018-09-12T23:42:51.983Z,18.40
2018-09-12T23:45:20.259Z,18.60
2018-09-12T23:47:48.511Z,18.40
2018-09-12T23:50:16.817Z,18.20
2018-09-12T23:52:45.099Z,18.20
2018-09-12T23:55:13.338Z,18.00
2018-09-12T23:57:41.603Z,17.80
